sensor_id;sensor_type;location;lat;lon;timestamp;P1;durP1;ratioP1;P2;durP2;ratioP2
69596;SDS011;70000;51.176;-115.568;2024-01-30T00:01:36;4.40;;;1.60;;
69596;SDS011;70000;51.176;-115.568;2024-01-30T00:04:05;4.40;;;1.80;;
69596;SDS011;70000;51.176;-115.568;2024-01-30T00:06:35;4.60;;;1.80;;
69596;SDS011;70000;51.176;-115.568;2024-01-30T00:09:03;4.30;;;1.60;;
69596;SDS011;70000;51.176;-115.568;2024-01-30T00:11:36;4.60;;;2.00;;
69596;SDS011;70000;51.176;-115.568;2024-01-30T00:14:06;4.30;;;1.60;;
69596;SDS011;70000;51.176;-115.568;2024-01-30T00:16:35;4.40;;;1.70;;
69596;SDS011;70000;51.176;-115.568;2024-01-30T00:19:04;4.70;;;1.90;;
69596;SDS011;70000;51.176;-115.568;2024-01-30T00:21:33;4.20;;;1.60;;
69596;SDS011;70000;51.176;-115.568;2024-01-30T00:24:03;5.40;;;1.70;;
69596;SDS011;70000;51.176;-115.568;2024-01-30T00:26:32;5.50;;;1.90;;
69596;SDS011;70000;51.176;-115.568;2024-01-30T00:29:02;4.60;;;1.70;;
69596;SDS011;70000;51.176;-115.568;2024-01-30T00:31:31;4.70;;;1.70;;
69596;SDS011;70000;51.176;-115.568;2024-01-30T00:34:00;5.20;;;2.40;;
69596;SDS011;70000;51.176;-115.568;2024-01-30T00:36:30;5.00;;;2.00;;
69596;SDS011;70000;51.176;-115.568;2024-01-30T00:38:59;4.20;;;1.60;;
69596;SDS011;70000;51.176;-115.568;2024-01-30T00:41:29;4.50;;;1.50;;
69596;SDS011;70000;51.176;-115.568;2024-01-30T00:43:59;5.50;;;1.60;;
69596;SDS011;70000;51.176;-115.568;2024-01-30T00:46:28;4.40;;;1.60;;
69596;SDS011;70000;51.176;-115.568;2024-01-30T00:49:01;4.60;;;1.80;;
69596;SDS011;70000;51.176;-115.568;2024-01-30T00:51:30;4.60;;;1.60;;
69596;SDS011;70000;51.176;-115.568;2024-01-30T00:54:00;4.10;;;1.60;;
69596;SDS011;70000;51.176;-115.568;2024-01-30T00:56:29;5.40;;;1.50;;
69596;SDS011;70000;51.176;-115.568;2024-01-30T00:58:59;4.60;;;1.80;;
69596;SDS011;70000;51.176;-115.568;2024-01-30T01:01:28;4.50;;;1.90;;
69596;SDS011;70000;51.176;-115.568;2024-01-30T01:03:57;4.40;;;1.70;;
69596;SDS011;70000;51.176;-115.568;2024-01-30T01:06:27;4.70;;;1.60;;
69596;SDS011;70000;51.176;-115.568;2024-01-30T01:08:56;4.30;;;1.60;;
69596;SDS011;70000;51.176;-115.568;2024-01-30T01:11:30;4.60;;;1.70;;
69596;SDS011;70000;51.176;-115.568;2024-01-30T01:14:00;5.70;;;1.80;;
69596;SDS011;70000;51.176;-115.568;2024-01-30T01:16:29;4.90;;;1.90;;
69596;SDS011;70000;51.176;-115.568;2024-01-30T01:19:04;5.40;;;2.30;;
69596;SDS011;70000;51.176;-115.568;2024-01-30T01:21:33;5.10;;;2.00;;
69596;SDS011;70000;51.176;-115.568;2024-01-30T01:24:12;4.60;;;1.70;;
69596;SDS011;70000;51.176;-115.568;2024-01-30T01:26:41;5.40;;;2.20;;
69596;SDS011;70000;51.176;-115.568;2024-01-30T01:29:10;4.10;;;1.60;;
69596;SDS011;70000;51.176;-115.568;2024-01-30T01:31:42;4.40;;;1.80;;
69596;SDS011;70000;51.176;-115.568;2024-01-30T01:34:12;5.90;;;2.10;;
69596;SDS011;70000;51.176;-115.568;2024-01-30T01:36:41;5.80;;;2.60;;
69596;SDS011;70000;51.176;-115.568;2024-01-30T01:39:10;4.90;;;2.10;;
69596;SDS011;70000;51.176;-115.568;2024-01-30T01:41:39;4.70;;;1.70;;
69596;SDS011;70000;51.176;-115.568;2024-01-30T01:44:08;4.20;;;1.50;;
69596;SDS011;70000;51.176;-115.568;2024-01-30T01:46:37;5.10;;;2.20;;
69596;SDS011;70000;51.176;-115.568;2024-01-30T01:49:07;5.80;;;2.70;;
69596;SDS011;70000;51.176;-115.568;2024-01-30T01:51:36;5.00;;;2.20;;
69596;SDS011;70000;51.176;-115.568;2024-01-30T01:54:09;5.90;;;2.40;;
69596;SDS011;70000;51.176;-115.568;2024-01-30T01:56:43;5.10;;;2.10;;
69596;SDS011;70000;51.176;-115.568;2024-01-30T01:59:12;5.50;;;2.10;;
69596;SDS011;70000;51.176;-115.568;2024-01-30T02:01:47;5.30;;;2.20;;
69596;SDS011;70000;51.176;-115.568;2024-01-30T02:08:14;5.00;;;2.10;;
69596;SDS011;70000;51.176;-115.568;2024-01-30T02:10:44;5.30;;;2.00;;
69596;SDS011;70000;51.176;-115.568;2024-01-30T02:13:14;5.60;;;2.50;;
69596;SDS011;70000;51.176;-115.568;2024-01-30T02:15:43;6.20;;;2.20;;
69596;SDS011;70000;51.176;-115.568;2024-01-30T02:18:20;5.80;;;2.40;;
69596;SDS011;70000;51.176;-115.568;2024-01-30T02:20:54;5.10;;;2.00;;
69596;SDS011;70000;51.176;-115.568;2024-01-30T02:23:30;6.90;;;2.70;;
69596;SDS011;70000;51.176;-115.568;2024-01-30T02:26:02;5.80;;;2.60;;
69596;SDS011;70000;51.176;-115.568;2024-01-30T02:28:32;6.20;;;2.70;;
69596;SDS011;70000;51.176;-115.568;2024-01-30T02:31:00;6.30;;;2.90;;
69596;SDS011;70000;51.176;-115.568;2024-01-30T02:33:30;5.60;;;2.50;;
69596;SDS011;70000;51.176;-115.568;2024-01-30T02:35:59;4.90;;;2.20;;
69596;SDS011;70000;51.176;-115.568;2024-01-30T02:38:28;5.70;;;2.50;;
69596;SDS011;70000;51.176;-115.568;2024-01-30T02:40:57;5.20;;;2.20;;
69596;SDS011;70000;51.176;-115.568;2024-01-30T02:43:26;5.20;;;2.10;;
69596;SDS011;70000;51.176;-115.568;2024-01-30T02:45:55;6.70;;;2.50;;
69596;SDS011;70000;51.176;-115.568;2024-01-30T02:48:26;6.60;;;2.90;;
69596;SDS011;70000;51.176;-115.568;2024-01-30T02:50:55;6.40;;;3.00;;
69596;SDS011;70000;51.176;-115.568;2024-01-30T02:53:25;6.20;;;3.20;;
69596;SDS011;70000;51.176;-115.568;2024-01-30T02:55:54;5.80;;;2.20;;
69596;SDS011;70000;51.176;-115.568;2024-01-30T02:58:23;5.40;;;2.20;;
69596;SDS011;70000;51.176;-115.568;2024-01-30T03:00:52;5.30;;;2.60;;
69596;SDS011;70000;51.176;-115.568;2024-01-30T03:03:21;5.50;;;2.60;;
69596;SDS011;70000;51.176;-115.568;2024-01-30T03:05:50;5.10;;;2.00;;
69596;SDS011;70000;51.176;-115.568;2024-01-30T03:08:20;5.20;;;2.10;;
69596;SDS011;70000;51.176;-115.568;2024-01-30T03:10:49;4.50;;;1.70;;
69596;SDS011;70000;51.176;-115.568;2024-01-30T03:13:21;5.50;;;2.10;;
69596;SDS011;70000;51.176;-115.568;2024-01-30T03:15:52;5.50;;;2.30;;
69596;SDS011;70000;51.176;-115.568;2024-01-30T03:18:22;5.10;;;2.10;;
69596;SDS011;70000;51.176;-115.568;2024-01-30T03:20:51;5.00;;;2.20;;
69596;SDS011;70000;51.176;-115.568;2024-01-30T03:23:20;4.70;;;2.20;;
69596;SDS011;70000;51.176;-115.568;2024-01-30T03:25:49;4.80;;;1.80;;
69596;SDS011;70000;51.176;-115.568;2024-01-30T03:28:18;5.20;;;2.20;;
69596;SDS011;70000;51.176;-115.568;2024-01-30T03:30:50;4.10;;;1.60;;
69596;SDS011;70000;51.176;-115.568;2024-01-30T03:33:21;6.70;;;2.70;;
69596;SDS011;70000;51.176;-115.568;2024-01-30T03:35:53;5.10;;;2.00;;
69596;SDS011;70000;51.176;-115.568;2024-01-30T03:38:22;5.60;;;2.50;;
69596;SDS011;70000;51.176;-115.568;2024-01-30T03:40:51;5.80;;;2.60;;
69596;SDS011;70000;51.176;-115.568;2024-01-30T03:43:20;4.80;;;1.70;;
69596;SDS011;70000;51.176;-115.568;2024-01-30T03:45:49;4.90;;;1.70;;
69596;SDS011;70000;51.176;-115.568;2024-01-30T03:48:19;4.70;;;2.00;;
69596;SDS011;70000;51.176;-115.568;2024-01-30T03:50:49;4.70;;;2.10;;
69596;SDS011;70000;51.176;-115.568;2024-01-30T03:53:18;5.10;;;1.90;;
69596;SDS011;70000;51.176;-115.568;2024-01-30T03:55:47;5.30;;;2.40;;
69596;SDS011;70000;51.176;-115.568;2024-01-30T03:58:16;5.10;;;2.20;;
69596;SDS011;70000;51.176;-115.568;2024-01-30T04:00:45;4.90;;;1.90;;
69596;SDS011;70000;51.176;-115.568;2024-01-30T04:03:14;5.40;;;2.20;;
69596;SDS011;70000;51.176;-115.568;2024-01-30T04:05:49;5.30;;;2.20;;
69596;SDS011;70000;51.176;-115.568;2024-01-30T04:08:19;5.20;;;2.10;;
69596;SDS011;70000;51.176;-115.568;2024-01-30T04:10:49;4.90;;;2.00;;
69596;SDS011;70000;51.176;-115.568;2024-01-30T04:13:18;5.00;;;1.80;;
69596;SDS011;70000;51.176;-115.568;2024-01-30T04:15:47;4.80;;;1.70;;
69596;SDS011;70000;51.176;-115.568;2024-01-30T04:18:16;5.10;;;1.80;;
69596;SDS011;70000;51.176;-115.568;2024-01-30T04:20:45;4.60;;;1.70;;
69596;SDS011;70000;51.176;-115.568;2024-01-30T04:23:14;4.60;;;1.70;;
69596;SDS011;70000;51.176;-115.568;2024-01-30T04:25:49;5.10;;;1.80;;
69596;SDS011;70000;51.176;-115.568;2024-01-30T04:28:18;4.50;;;1.90;;
69596;SDS011;70000;51.176;-115.568;2024-01-30T04:30:47;4.80;;;2.00;;
69596;SDS011;70000;51.176;-115.568;2024-01-30T04:33:16;5.20;;;2.00;;
69596;SDS011;70000;51.176;-115.568;2024-01-30T04:46:39;3.80;;;1.40;;
69596;SDS011;70000;51.176;-115.568;2024-01-30T04:49:12;4.70;;;1.80;;
69596;SDS011;70000;51.176;-115.568;2024-01-30T04:51:41;5.00;;;2.00;;
69596;SDS011;70000;51.176;-115.568;2024-01-30T04:54:10;4.90;;;2.30;;
69596;SDS011;70000;51.176;-115.568;2024-01-30T04:56:39;4.90;;;2.00;;
69596;SDS011;70000;51.176;-115.568;2024-01-30T05:11:58;4.90;;;2.10;;
69596;SDS011;70000;51.176;-115.568;2024-01-30T05:14:27;4.10;;;1.40;;
69596;SDS011;70000;51.176;-115.568;2024-01-30T05:17:00;4.40;;;1.70;;
69596;SDS011;70000;51.176;-115.568;2024-01-30T05:19:31;4.60;;;1.70;;
69596;SDS011;70000;51.176;-115.568;2024-01-30T05:22:00;5.30;;;2.10;;
69596;SDS011;70000;51.176;-115.568;2024-01-30T05:24:35;4.70;;;2.10;;
69596;SDS011;70000;51.176;-115.568;2024-01-30T05:27:05;4.50;;;1.70;;
69596;SDS011;70000;51.176;-115.568;2024-01-30T05:29:34;4.10;;;1.50;;
69596;SDS011;70000;51.176;-115.568;2024-01-30T05:32:03;4.40;;;1.80;;
69596;SDS011;70000;51.176;-115.568;2024-01-30T05:34:34;4.70;;;2.00;;
69596;SDS011;70000;51.176;-115.568;2024-01-30T05:37:04;4.10;;;1.70;;
69596;SDS011;70000;51.176;-115.568;2024-01-30T05:39:33;4.00;;;1.40;;
69596;SDS011;70000;51.176;-115.568;2024-01-30T05:42:03;4.60;;;1.90;;
69596;SDS011;70000;51.176;-115.568;2024-01-30T05:44:33;4.70;;;1.70;;
69596;SDS011;70000;51.176;-115.568;2024-01-30T05:47:02;4.70;;;2.00;;
69596;SDS011;70000;51.176;-115.568;2024-01-30T05:49:31;4.30;;;1.80;;
69596;SDS011;70000;51.176;-115.568;2024-01-30T05:52:03;4.60;;;1.80;;
69596;SDS011;70000;51.176;-115.568;2024-01-30T05:54:32;4.30;;;1.70;;
69596;SDS011;70000;51.176;-115.568;2024-01-30T05:57:01;4.10;;;1.50;;
69596;SDS011;70000;51.176;-115.568;2024-01-30T05:59:31;4.40;;;1.80;;
69596;SDS011;70000;51.176;-115.568;2024-01-30T06:02:02;4.50;;;2.00;;
69596;SDS011;70000;51.176;-115.568;2024-01-30T06:04:32;4.50;;;1.40;;
69596;SDS011;70000;51.176;-115.568;2024-01-30T06:07:01;4.40;;;1.80;;
69596;SDS011;70000;51.176;-115.568;2024-01-30T06:09:31;3.90;;;1.30;;
69596;SDS011;70000;51.176;-115.568;2024-01-30T06:12:00;4.70;;;1.90;;
69596;SDS011;70000;51.176;-115.568;2024-01-30T06:14:30;4.50;;;1.90;;
69596;SDS011;70000;51.176;-115.568;2024-01-30T06:29:43;4.10;;;1.60;;
69596;SDS011;70000;51.176;-115.568;2024-01-30T06:32:29;4.40;;;1.70;;
69596;SDS011;70000;51.176;-115.568;2024-01-30T06:35:05;4.40;;;1.80;;
69596;SDS011;70000;51.176;-115.568;2024-01-30T06:37:34;4.50;;;1.80;;
69596;SDS011;70000;51.176;-115.568;2024-01-30T06:40:04;4.60;;;1.50;;
69596;SDS011;70000;51.176;-115.568;2024-01-30T06:42:33;4.50;;;1.70;;
69596;SDS011;70000;51.176;-115.568;2024-01-30T06:45:02;4.20;;;1.60;;
69596;SDS011;70000;51.176;-115.568;2024-01-30T06:47:31;4.30;;;1.50;;
69596;SDS011;70000;51.176;-115.568;2024-01-30T06:50:01;4.40;;;1.60;;
69596;SDS011;70000;51.176;-115.568;2024-01-30T06:52:31;4.60;;;1.80;;
69596;SDS011;70000;51.176;-115.568;2024-01-30T06:55:00;4.50;;;1.80;;
69596;SDS011;70000;51.176;-115.568;2024-01-30T06:57:29;3.80;;;1.50;;
69596;SDS011;70000;51.176;-115.568;2024-01-30T07:00:01;4.10;;;1.50;;
69596;SDS011;70000;51.176;-115.568;2024-01-30T07:02:30;4.60;;;2.00;;
69596;SDS011;70000;51.176;-115.568;2024-01-30T07:04:59;4.40;;;1.70;;
69596;SDS011;70000;51.176;-115.568;2024-01-30T07:07:30;3.90;;;1.50;;
69596;SDS011;70000;51.176;-115.568;2024-01-30T07:09:59;4.40;;;1.80;;
69596;SDS011;70000;51.176;-115.568;2024-01-30T07:12:28;4.50;;;1.80;;
69596;SDS011;70000;51.176;-115.568;2024-01-30T07:14:59;4.60;;;1.90;;
69596;SDS011;70000;51.176;-115.568;2024-01-30T07:17:29;4.60;;;1.90;;
69596;SDS011;70000;51.176;-115.568;2024-01-30T07:19:58;4.00;;;1.50;;
69596;SDS011;70000;51.176;-115.568;2024-01-30T07:22:27;3.90;;;1.30;;
69596;SDS011;70000;51.176;-115.568;2024-01-30T07:24:56;5.90;;;1.90;;
69596;SDS011;70000;51.176;-115.568;2024-01-30T07:27:25;4.30;;;1.60;;
69596;SDS011;70000;51.176;-115.568;2024-01-30T07:29:55;4.30;;;1.70;;
69596;SDS011;70000;51.176;-115.568;2024-01-30T07:32:24;4.60;;;1.60;;
69596;SDS011;70000;51.176;-115.568;2024-01-30T07:34:53;4.30;;;1.60;;
69596;SDS011;70000;51.176;-115.568;2024-01-30T07:37:34;3.90;;;1.50;;
69596;SDS011;70000;51.176;-115.568;2024-01-30T07:40:04;4.30;;;1.80;;
69596;SDS011;70000;51.176;-115.568;2024-01-30T07:42:34;4.50;;;2.00;;
69596;SDS011;70000;51.176;-115.568;2024-01-30T07:45:03;4.00;;;1.50;;
69596;SDS011;70000;51.176;-115.568;2024-01-30T07:47:33;4.40;;;1.80;;
69596;SDS011;70000;51.176;-115.568;2024-01-30T07:50:02;4.40;;;1.70;;
69596;SDS011;70000;51.176;-115.568;2024-01-30T07:52:31;4.60;;;1.90;;
69596;SDS011;70000;51.176;-115.568;2024-01-30T07:55:00;4.10;;;1.50;;
69596;SDS011;70000;51.176;-115.568;2024-01-30T07:57:31;4.20;;;1.50;;
69596;SDS011;70000;51.176;-115.568;2024-01-30T08:00:01;4.20;;;1.60;;
69596;SDS011;70000;51.176;-115.568;2024-01-30T08:02:35;4.10;;;1.50;;
69596;SDS011;70000;51.176;-115.568;2024-01-30T08:09:22;4.10;;;1.60;;
69596;SDS011;70000;51.176;-115.568;2024-01-30T08:11:51;4.10;;;1.50;;
69596;SDS011;70000;51.176;-115.568;2024-01-30T08:14:20;5.10;;;1.80;;
69596;SDS011;70000;51.176;-115.568;2024-01-30T08:16:48;4.50;;;1.70;;
69596;SDS011;70000;51.176;-115.568;2024-01-30T08:19:18;4.20;;;1.60;;
69596;SDS011;70000;51.176;-115.568;2024-01-30T08:21:47;4.70;;;1.80;;
69596;SDS011;70000;51.176;-115.568;2024-01-30T08:24:17;5.00;;;1.70;;
69596;SDS011;70000;51.176;-115.568;2024-01-30T08:26:45;4.30;;;1.60;;
69596;SDS011;70000;51.176;-115.568;2024-01-30T08:29:16;4.50;;;1.50;;
69596;SDS011;70000;51.176;-115.568;2024-01-30T08:31:45;4.70;;;1.70;;
69596;SDS011;70000;51.176;-115.568;2024-01-30T08:34:14;4.20;;;1.50;;
69596;SDS011;70000;51.176;-115.568;2024-01-30T08:36:43;4.20;;;1.70;;
69596;SDS011;70000;51.176;-115.568;2024-01-30T08:44:40;4.50;;;1.80;;
69596;SDS011;70000;51.176;-115.568;2024-01-30T08:47:09;4.10;;;1.50;;
69596;SDS011;70000;51.176;-115.568;2024-01-30T08:49:38;4.60;;;1.70;;
69596;SDS011;70000;51.176;-115.568;2024-01-30T08:52:07;4.20;;;1.60;;
69596;SDS011;70000;51.176;-115.568;2024-01-30T08:54:36;4.50;;;1.40;;
69596;SDS011;70000;51.176;-115.568;2024-01-30T08:57:08;4.60;;;1.90;;
69596;SDS011;70000;51.176;-115.568;2024-01-30T08:59:37;4.10;;;1.50;;
69596;SDS011;70000;51.176;-115.568;2024-01-30T09:02:06;4.30;;;1.60;;
69596;SDS011;70000;51.176;-115.568;2024-01-30T09:04:39;4.20;;;1.50;;
69596;SDS011;70000;51.176;-115.568;2024-01-30T09:07:09;3.90;;;1.50;;
69596;SDS011;70000;51.176;-115.568;2024-01-30T09:09:39;4.10;;;1.60;;
69596;SDS011;70000;51.176;-115.568;2024-01-30T09:20:36;4.00;;;1.60;;
69596;SDS011;70000;51.176;-115.568;2024-01-30T09:23:08;4.10;;;1.60;;
69596;SDS011;70000;51.176;-115.568;2024-01-30T09:25:37;4.50;;;1.60;;
69596;SDS011;70000;51.176;-115.568;2024-01-30T09:28:06;4.10;;;1.50;;
69596;SDS011;70000;51.176;-115.568;2024-01-30T09:30:35;4.40;;;1.80;;
69596;SDS011;70000;51.176;-115.568;2024-01-30T09:33:05;4.50;;;2.00;;
69596;SDS011;70000;51.176;-115.568;2024-01-30T09:35:36;4.50;;;1.90;;
69596;SDS011;70000;51.176;-115.568;2024-01-30T09:38:05;4.30;;;1.60;;
69596;SDS011;70000;51.176;-115.568;2024-01-30T09:40:36;3.90;;;1.40;;
69596;SDS011;70000;51.176;-115.568;2024-01-30T09:43:06;4.50;;;1.90;;
69596;SDS011;70000;51.176;-115.568;2024-01-30T09:45:35;4.60;;;1.80;;
69596;SDS011;70000;51.176;-115.568;2024-01-30T09:48:05;4.10;;;1.60;;
69596;SDS011;70000;51.176;-115.568;2024-01-30T09:50:34;4.40;;;1.70;;
69596;SDS011;70000;51.176;-115.568;2024-01-30T09:53:07;4.40;;;1.70;;
69596;SDS011;70000;51.176;-115.568;2024-01-30T09:55:37;4.50;;;1.70;;
69596;SDS011;70000;51.176;-115.568;2024-01-30T09:58:08;4.60;;;1.50;;
69596;SDS011;70000;51.176;-115.568;2024-01-30T10:00:37;4.20;;;1.60;;
69596;SDS011;70000;51.176;-115.568;2024-01-30T10:03:09;4.70;;;1.60;;
69596;SDS011;70000;51.176;-115.568;2024-01-30T10:05:40;4.60;;;2.00;;
69596;SDS011;70000;51.176;-115.568;2024-01-30T10:08:17;4.40;;;1.80;;
69596;SDS011;70000;51.176;-115.568;2024-01-30T10:10:50;3.70;;;1.20;;
69596;SDS011;70000;51.176;-115.568;2024-01-30T10:13:19;4.40;;;1.60;;
69596;SDS011;70000;51.176;-115.568;2024-01-30T10:15:48;4.00;;;1.50;;
69596;SDS011;70000;51.176;-115.568;2024-01-30T10:18:18;4.10;;;1.40;;
69596;SDS011;70000;51.176;-115.568;2024-01-30T10:20:47;5.20;;;2.00;;
69596;SDS011;70000;51.176;-115.568;2024-01-30T10:23:17;4.50;;;1.70;;
69596;SDS011;70000;51.176;-115.568;2024-01-30T10:25:48;4.40;;;1.80;;
69596;SDS011;70000;51.176;-115.568;2024-01-30T10:28:17;4.20;;;1.70;;
69596;SDS011;70000;51.176;-115.568;2024-01-30T10:30:46;4.80;;;1.90;;
69596;SDS011;70000;51.176;-115.568;2024-01-30T10:33:44;4.60;;;1.90;;
69596;SDS011;70000;51.176;-115.568;2024-01-30T10:36:17;5.10;;;1.80;;
69596;SDS011;70000;51.176;-115.568;2024-01-30T10:39:25;3.80;;;1.40;;
69596;SDS011;70000;51.176;-115.568;2024-01-30T10:42:04;4.40;;;1.60;;
69596;SDS011;70000;51.176;-115.568;2024-01-30T10:45:00;4.40;;;1.70;;
69596;SDS011;70000;51.176;-115.568;2024-01-30T10:47:36;3.80;;;1.30;;
69596;SDS011;70000;51.176;-115.568;2024-01-30T10:54:33;4.40;;;1.80;;
69596;SDS011;70000;51.176;-115.568;2024-01-30T10:57:04;4.10;;;1.50;;
69596;SDS011;70000;51.176;-115.568;2024-01-30T10:59:34;4.50;;;1.90;;
69596;SDS011;70000;51.176;-115.568;2024-01-30T11:02:05;3.70;;;1.30;;
69596;SDS011;70000;51.176;-115.568;2024-01-30T11:04:38;4.50;;;1.70;;
69596;SDS011;70000;51.176;-115.568;2024-01-30T11:07:17;4.40;;;1.70;;
69596;SDS011;70000;51.176;-115.568;2024-01-30T11:09:52;4.50;;;1.80;;
69596;SDS011;70000;51.176;-115.568;2024-01-30T11:12:32;4.40;;;1.70;;
69596;SDS011;70000;51.176;-115.568;2024-01-30T11:15:11;4.70;;;1.50;;
69596;SDS011;70000;51.176;-115.568;2024-01-30T11:17:42;4.50;;;1.80;;
69596;SDS011;70000;51.176;-115.568;2024-01-30T11:20:30;4.50;;;1.80;;
69596;SDS011;70000;51.176;-115.568;2024-01-30T11:23:00;4.10;;;1.50;;
69596;SDS011;70000;51.176;-115.568;2024-01-30T11:25:36;4.30;;;1.80;;
69596;SDS011;70000;51.176;-115.568;2024-01-30T11:28:05;4.20;;;1.50;;
69596;SDS011;70000;51.176;-115.568;2024-01-30T11:30:41;4.50;;;1.90;;
69596;SDS011;70000;51.176;-115.568;2024-01-30T11:33:12;4.40;;;1.80;;
69596;SDS011;70000;51.176;-115.568;2024-01-30T11:36:01;4.10;;;1.60;;
69596;SDS011;70000;51.176;-115.568;2024-01-30T11:38:31;4.20;;;1.50;;
69596;SDS011;70000;51.176;-115.568;2024-01-30T11:41:00;4.50;;;2.00;;
69596;SDS011;70000;51.176;-115.568;2024-01-30T11:43:30;4.60;;;1.90;;
69596;SDS011;70000;51.176;-115.568;2024-01-30T11:46:01;4.60;;;1.90;;
69596;SDS011;70000;51.176;-115.568;2024-01-30T11:48:30;3.90;;;1.50;;
69596;SDS011;70000;51.176;-115.568;2024-01-30T11:51:02;4.50;;;1.80;;
69596;SDS011;70000;51.176;-115.568;2024-01-30T11:53:31;4.20;;;1.60;;
69596;SDS011;70000;51.176;-115.568;2024-01-30T11:56:00;4.80;;;2.00;;
69596;SDS011;70000;51.176;-115.568;2024-01-30T11:58:34;4.70;;;1.80;;
69596;SDS011;70000;51.176;-115.568;2024-01-30T12:01:04;4.40;;;1.60;;
69596;SDS011;70000;51.176;-115.568;2024-01-30T12:03:33;4.30;;;1.50;;
69596;SDS011;70000;51.176;-115.568;2024-01-30T12:06:03;4.30;;;1.80;;
69596;SDS011;70000;51.176;-115.568;2024-01-30T12:08:34;4.50;;;1.90;;
69596;SDS011;70000;51.176;-115.568;2024-01-30T12:11:06;4.70;;;1.80;;
69596;SDS011;70000;51.176;-115.568;2024-01-30T12:13:35;4.20;;;1.80;;
69596;SDS011;70000;51.176;-115.568;2024-01-30T12:16:41;4.40;;;1.90;;
69596;SDS011;70000;51.176;-115.568;2024-01-30T12:19:09;4.20;;;1.60;;
69596;SDS011;70000;51.176;-115.568;2024-01-30T12:21:38;4.60;;;1.90;;
69596;SDS011;70000;51.176;-115.568;2024-01-30T12:24:06;4.20;;;1.70;;
69596;SDS011;70000;51.176;-115.568;2024-01-30T12:26:35;4.10;;;1.50;;
69596;SDS011;70000;51.176;-115.568;2024-01-30T12:29:04;4.20;;;1.60;;
69596;SDS011;70000;51.176;-115.568;2024-01-30T12:31:32;4.80;;;1.80;;
69596;SDS011;70000;51.176;-115.568;2024-01-30T12:34:01;4.10;;;1.50;;
69596;SDS011;70000;51.176;-115.568;2024-01-30T12:36:30;3.90;;;1.40;;
69596;SDS011;70000;51.176;-115.568;2024-01-30T12:38:59;4.70;;;1.70;;
69596;SDS011;70000;51.176;-115.568;2024-01-30T12:41:29;4.10;;;1.50;;
69596;SDS011;70000;51.176;-115.568;2024-01-30T12:43:58;4.10;;;1.50;;
69596;SDS011;70000;51.176;-115.568;2024-01-30T12:46:29;4.80;;;2.00;;
69596;SDS011;70000;51.176;-115.568;2024-01-30T12:48:58;4.60;;;1.90;;
69596;SDS011;70000;51.176;-115.568;2024-01-30T12:51:26;4.10;;;1.60;;
69596;SDS011;70000;51.176;-115.568;2024-01-30T12:53:55;4.20;;;1.50;;
69596;SDS011;70000;51.176;-115.568;2024-01-30T12:56:23;3.90;;;1.30;;
69596;SDS011;70000;51.176;-115.568;2024-01-30T12:58:52;4.30;;;1.70;;
69596;SDS011;70000;51.176;-115.568;2024-01-30T13:01:22;4.20;;;1.70;;
69596;SDS011;70000;51.176;-115.568;2024-01-30T13:03:51;4.30;;;1.70;;
69596;SDS011;70000;51.176;-115.568;2024-01-30T13:06:20;4.20;;;1.70;;
69596;SDS011;70000;51.176;-115.568;2024-01-30T13:08:49;4.10;;;1.70;;
69596;SDS011;70000;51.176;-115.568;2024-01-30T13:11:17;4.20;;;1.70;;
69596;SDS011;70000;51.176;-115.568;2024-01-30T13:13:48;4.50;;;1.80;;
69596;SDS011;70000;51.176;-115.568;2024-01-30T13:16:16;4.30;;;1.70;;
69596;SDS011;70000;51.176;-115.568;2024-01-30T13:18:45;4.00;;;1.50;;
69596;SDS011;70000;51.176;-115.568;2024-01-30T13:21:13;4.40;;;1.70;;
69596;SDS011;70000;51.176;-115.568;2024-01-30T13:23:44;4.10;;;1.60;;
69596;SDS011;70000;51.176;-115.568;2024-01-30T13:32:59;4.20;;;1.60;;
69596;SDS011;70000;51.176;-115.568;2024-01-30T13:35:30;4.20;;;1.60;;
69596;SDS011;70000;51.176;-115.568;2024-01-30T13:37:59;4.60;;;2.00;;
69596;SDS011;70000;51.176;-115.568;2024-01-30T13:40:28;4.30;;;1.70;;
69596;SDS011;70000;51.176;-115.568;2024-01-30T13:48:23;4.20;;;1.70;;
69596;SDS011;70000;51.176;-115.568;2024-01-30T13:50:52;4.50;;;1.90;;
69596;SDS011;70000;51.176;-115.568;2024-01-30T13:53:22;4.40;;;1.70;;
69596;SDS011;70000;51.176;-115.568;2024-01-30T13:55:51;4.50;;;1.70;;
69596;SDS011;70000;51.176;-115.568;2024-01-30T13:58:21;4.00;;;1.50;;
69596;SDS011;70000;51.176;-115.568;2024-01-30T14:00:50;4.30;;;1.70;;
69596;SDS011;70000;51.176;-115.568;2024-01-30T14:03:19;3.70;;;1.30;;
69596;SDS011;70000;51.176;-115.568;2024-01-30T14:05:51;4.30;;;1.60;;
69596;SDS011;70000;51.176;-115.568;2024-01-30T14:08:21;4.20;;;1.70;;
69596;SDS011;70000;51.176;-115.568;2024-01-30T14:10:52;4.10;;;1.60;;
69596;SDS011;70000;51.176;-115.568;2024-01-30T14:24:15;4.20;;;1.60;;
69596;SDS011;70000;51.176;-115.568;2024-01-30T14:26:44;4.50;;;1.90;;
69596;SDS011;70000;51.176;-115.568;2024-01-30T14:29:13;4.20;;;1.60;;
69596;SDS011;70000;51.176;-115.568;2024-01-30T14:31:42;3.90;;;1.50;;
69596;SDS011;70000;51.176;-115.568;2024-01-30T14:34:14;4.10;;;1.60;;
69596;SDS011;70000;51.176;-115.568;2024-01-30T14:40:19;3.90;;;1.50;;
69596;SDS011;70000;51.176;-115.568;2024-01-30T14:43:45;4.50;;;1.70;;
69596;SDS011;70000;51.176;-115.568;2024-01-30T14:46:25;4.50;;;1.70;;
69596;SDS011;70000;51.176;-115.568;2024-01-30T14:48:58;4.10;;;1.50;;
69596;SDS011;70000;51.176;-115.568;2024-01-30T14:51:28;4.20;;;1.50;;
69596;SDS011;70000;51.176;-115.568;2024-01-30T14:54:41;4.20;;;1.50;;
69596;SDS011;70000;51.176;-115.568;2024-01-30T14:57:21;4.20;;;1.60;;
69596;SDS011;70000;51.176;-115.568;2024-01-30T15:00:21;4.50;;;1.40;;
69596;SDS011;70000;51.176;-115.568;2024-01-30T15:02:52;3.80;;;1.30;;
69596;SDS011;70000;51.176;-115.568;2024-01-30T15:05:22;4.30;;;1.60;;
69596;SDS011;70000;51.176;-115.568;2024-01-30T15:07:51;4.30;;;1.70;;
69596;SDS011;70000;51.176;-115.568;2024-01-30T15:10:22;4.30;;;1.70;;
69596;SDS011;70000;51.176;-115.568;2024-01-30T15:12:52;4.50;;;1.60;;
69596;SDS011;70000;51.176;-115.568;2024-01-30T15:15:21;4.20;;;1.50;;
69596;SDS011;70000;51.176;-115.568;2024-01-30T15:17:53;4.60;;;1.40;;
69596;SDS011;70000;51.176;-115.568;2024-01-30T15:20:23;3.90;;;1.40;;
69596;SDS011;70000;51.176;-115.568;2024-01-30T15:22:53;4.20;;;1.70;;
69596;SDS011;70000;51.176;-115.568;2024-01-30T15:25:22;5.30;;;1.80;;
69596;SDS011;70000;51.176;-115.568;2024-01-30T15:27:51;3.80;;;1.20;;
69596;SDS011;70000;51.176;-115.568;2024-01-30T15:30:20;4.10;;;1.40;;
69596;SDS011;70000;51.176;-115.568;2024-01-30T15:32:49;4.00;;;1.50;;
69596;SDS011;70000;51.176;-115.568;2024-01-30T15:35:19;3.70;;;1.30;;
69596;SDS011;70000;51.176;-115.568;2024-01-30T15:37:48;4.70;;;1.70;;
69596;SDS011;70000;51.176;-115.568;2024-01-30T15:40:18;4.00;;;1.50;;
69596;SDS011;70000;51.176;-115.568;2024-01-30T15:42:47;3.80;;;1.30;;
69596;SDS011;70000;51.176;-115.568;2024-01-30T15:45:16;4.20;;;1.50;;
69596;SDS011;70000;51.176;-115.568;2024-01-30T15:47:45;4.30;;;1.50;;
69596;SDS011;70000;51.176;-115.568;2024-01-30T15:50:14;3.60;;;1.10;;
69596;SDS011;70000;51.176;-115.568;2024-01-30T15:52:44;3.90;;;1.30;;
69596;SDS011;70000;51.176;-115.568;2024-01-30T15:55:13;4.00;;;1.30;;
69596;SDS011;70000;51.176;-115.568;2024-01-30T15:57:43;5.20;;;1.30;;
69596;SDS011;70000;51.176;-115.568;2024-01-30T16:00:12;4.50;;;1.50;;